sensor_id;sensor_type;location;lat;lon;timestamp;P1;durP1;ratioP1;P2;durP2;ratioP2
6955;SDS011;50345;51.136;16.886;2024-01-06T00:02:07;46.80;;;31.43;;
6955;SDS011;50345;51.136;16.886;2024-01-06T00:04:33;40.93;;;29.10;;
6955;SDS011;50345;51.136;16.886;2024-01-06T00:06:58;34.03;;;25.67;;
6955;SDS011;50345;51.136;16.886;2024-01-06T00:09:24;49.53;;;29.00;;
6955;SDS011;50345;51.136;16.886;2024-01-06T00:11:49;43.17;;;30.40;;
6955;SDS011;50345;51.136;16.886;2024-01-06T00:14:15;41.53;;;30.00;;
6955;SDS011;50345;51.136;16.886;2024-01-06T00:16:41;39.90;;;28.67;;
6955;SDS011;50345;51.136;16.886;2024-01-06T00:19:06;44.43;;;30.53;;
6955;SDS011;50345;51.136;16.886;2024-01-06T00:21:32;53.63;;;34.50;;
6955;SDS011;50345;51.136;16.886;2024-01-06T00:23:58;51.33;;;32.00;;
6955;SDS011;50345;51.136;16.886;2024-01-06T00:26:23;43.13;;;29.87;;
6955;SDS011;50345;51.136;16.886;2024-01-06T00:28:52;42.40;;;30.30;;
6955;SDS011;50345;51.136;16.886;2024-01-06T00:31:17;47.90;;;30.23;;
6955;SDS011;50345;51.136;16.886;2024-01-06T00:33:43;42.03;;;30.70;;
6955;SDS011;50345;51.136;16.886;2024-01-06T00:36:09;46.53;;;31.30;;
6955;SDS011;50345;51.136;16.886;2024-01-06T00:38:34;45.93;;;30.60;;
6955;SDS011;50345;51.136;16.886;2024-01-06T00:41:00;44.47;;;32.00;;
6955;SDS011;50345;51.136;16.886;2024-01-06T00:43:26;38.33;;;28.23;;
6955;SDS011;50345;51.136;16.886;2024-01-06T00:45:52;47.70;;;30.90;;
6955;SDS011;50345;51.136;16.886;2024-01-06T00:48:17;45.73;;;30.93;;
6955;SDS011;50345;51.136;16.886;2024-01-06T00:50:43;43.67;;;31.13;;
6955;SDS011;50345;51.136;16.886;2024-01-06T00:53:09;47.77;;;32.30;;
6955;SDS011;50345;51.136;16.886;2024-01-06T00:55:34;49.67;;;31.00;;
6955;SDS011;50345;51.136;16.886;2024-01-06T00:58:00;46.50;;;30.40;;
6955;SDS011;50345;51.136;16.886;2024-01-06T01:00:25;51.07;;;32.50;;
6955;SDS011;50345;51.136;16.886;2024-01-06T01:02:52;46.47;;;31.13;;
6955;SDS011;50345;51.136;16.886;2024-01-06T01:05:18;46.80;;;32.00;;
6955;SDS011;50345;51.136;16.886;2024-01-06T01:07:44;52.23;;;32.97;;
6955;SDS011;50345;51.136;16.886;2024-01-06T01:10:09;46.47;;;32.40;;
6955;SDS011;50345;51.136;16.886;2024-01-06T01:12:35;55.43;;;33.43;;
6955;SDS011;50345;51.136;16.886;2024-01-06T01:15:01;45.42;;;30.73;;
6955;SDS011;50345;51.136;16.886;2024-01-06T01:17:27;54.87;;;33.23;;
6955;SDS011;50345;51.136;16.886;2024-01-06T01:19:52;53.80;;;32.70;;
6955;SDS011;50345;51.136;16.886;2024-01-06T01:22:18;44.17;;;31.43;;
6955;SDS011;50345;51.136;16.886;2024-01-06T01:24:43;44.83;;;28.77;;
6955;SDS011;50345;51.136;16.886;2024-01-06T01:27:09;41.83;;;30.53;;
6955;SDS011;50345;51.136;16.886;2024-01-06T01:29:35;43.37;;;29.00;;
6955;SDS011;50345;51.136;16.886;2024-01-06T01:32:00;48.22;;;29.50;;
6955;SDS011;50345;51.136;16.886;2024-01-06T01:34:26;44.90;;;28.30;;
6955;SDS011;50345;51.136;16.886;2024-01-06T01:36:52;45.70;;;27.73;;
6955;SDS011;50345;51.136;16.886;2024-01-06T01:39:17;45.50;;;29.20;;
6955;SDS011;50345;51.136;16.886;2024-01-06T01:41:43;40.80;;;29.73;;
6955;SDS011;50345;51.136;16.886;2024-01-06T01:44:08;45.13;;;30.23;;
6955;SDS011;50345;51.136;16.886;2024-01-06T01:46:34;36.83;;;27.37;;
6955;SDS011;50345;51.136;16.886;2024-01-06T01:49:00;42.40;;;30.80;;
6955;SDS011;50345;51.136;16.886;2024-01-06T01:51:28;45.10;;;31.15;;
6955;SDS011;50345;51.136;16.886;2024-01-06T01:53:57;46.22;;;30.00;;
6955;SDS011;50345;51.136;16.886;2024-01-06T01:56:24;43.78;;;27.52;;
6955;SDS011;50345;51.136;16.886;2024-01-06T01:58:51;42.28;;;30.75;;
6955;SDS011;50345;51.136;16.886;2024-01-06T02:01:17;47.33;;;31.57;;
6955;SDS011;50345;51.136;16.886;2024-01-06T02:03:42;46.03;;;30.17;;
6955;SDS011;50345;51.136;16.886;2024-01-06T02:06:08;43.30;;;29.90;;
6955;SDS011;50345;51.136;16.886;2024-01-06T02:08:34;42.17;;;28.92;;
6955;SDS011;50345;51.136;16.886;2024-01-06T02:11:00;44.13;;;28.10;;
6955;SDS011;50345;51.136;16.886;2024-01-06T02:13:33;43.58;;;29.83;;
6955;SDS011;50345;51.136;16.886;2024-01-06T02:16:00;45.33;;;27.42;;
6955;SDS011;50345;51.136;16.886;2024-01-06T02:18:27;42.65;;;28.73;;
6955;SDS011;50345;51.136;16.886;2024-01-06T02:20:52;48.63;;;30.07;;
6955;SDS011;50345;51.136;16.886;2024-01-06T02:23:21;41.22;;;27.40;;
6955;SDS011;50345;51.136;16.886;2024-01-06T02:25:46;36.93;;;26.80;;
6955;SDS011;50345;51.136;16.886;2024-01-06T02:28:12;38.70;;;28.77;;
6955;SDS011;50345;51.136;16.886;2024-01-06T02:30:37;42.23;;;28.97;;
6955;SDS011;50345;51.136;16.886;2024-01-06T02:33:03;43.13;;;28.00;;
6955;SDS011;50345;51.136;16.886;2024-01-06T02:35:29;41.60;;;27.53;;
6955;SDS011;50345;51.136;16.886;2024-01-06T02:37:54;35.70;;;26.80;;
6955;SDS011;50345;51.136;16.886;2024-01-06T02:40:20;39.27;;;28.97;;
6955;SDS011;50345;51.136;16.886;2024-01-06T02:42:45;43.00;;;29.50;;
6955;SDS011;50345;51.136;16.886;2024-01-06T02:45:11;46.80;;;30.47;;
6955;SDS011;50345;51.136;16.886;2024-01-06T02:47:37;40.90;;;27.47;;
6955;SDS011;50345;51.136;16.886;2024-01-06T02:50:02;42.40;;;26.50;;
6955;SDS011;50345;51.136;16.886;2024-01-06T02:52:28;42.30;;;28.58;;
6955;SDS011;50345;51.136;16.886;2024-01-06T02:54:54;42.60;;;28.57;;
6955;SDS011;50345;51.136;16.886;2024-01-06T02:57:19;44.17;;;27.67;;
6955;SDS011;50345;51.136;16.886;2024-01-06T02:59:45;44.00;;;28.87;;
6955;SDS011;50345;51.136;16.886;2024-01-06T03:02:11;37.47;;;26.57;;
6955;SDS011;50345;51.136;16.886;2024-01-06T03:04:36;39.87;;;27.50;;
6955;SDS011;50345;51.136;16.886;2024-01-06T03:07:02;43.73;;;28.57;;
6955;SDS011;50345;51.136;16.886;2024-01-06T03:09:28;49.60;;;29.83;;
6955;SDS011;50345;51.136;16.886;2024-01-06T03:11:53;35.70;;;27.27;;
6955;SDS011;50345;51.136;16.886;2024-01-06T03:14:19;37.87;;;27.17;;
6955;SDS011;50345;51.136;16.886;2024-01-06T03:16:44;39.77;;;27.50;;
6955;SDS011;50345;51.136;16.886;2024-01-06T03:19:10;38.80;;;29.33;;
6955;SDS011;50345;51.136;16.886;2024-01-06T03:21:35;45.80;;;28.90;;
6955;SDS011;50345;51.136;16.886;2024-01-06T03:24:01;38.33;;;27.93;;
6955;SDS011;50345;51.136;16.886;2024-01-06T03:26:27;42.07;;;29.30;;
6955;SDS011;50345;51.136;16.886;2024-01-06T03:28:54;38.97;;;29.20;;
6955;SDS011;50345;51.136;16.886;2024-01-06T03:31:19;46.38;;;28.73;;
6955;SDS011;50345;51.136;16.886;2024-01-06T03:33:47;37.33;;;26.73;;
6955;SDS011;50345;51.136;16.886;2024-01-06T03:36:13;35.47;;;28.70;;
6955;SDS011;50345;51.136;16.886;2024-01-06T03:38:42;38.38;;;27.48;;
6955;SDS011;50345;51.136;16.886;2024-01-06T03:41:07;42.30;;;28.67;;
6955;SDS011;50345;51.136;16.886;2024-01-06T03:43:33;40.80;;;27.33;;
6955;SDS011;50345;51.136;16.886;2024-01-06T03:45:58;37.60;;;26.20;;
6955;SDS011;50345;51.136;16.886;2024-01-06T03:48:25;40.15;;;27.75;;
6955;SDS011;50345;51.136;16.886;2024-01-06T03:50:50;37.93;;;25.90;;
6955;SDS011;50345;51.136;16.886;2024-01-06T03:53:16;40.80;;;28.50;;
6955;SDS011;50345;51.136;16.886;2024-01-06T03:55:42;39.37;;;26.70;;
6955;SDS011;50345;51.136;16.886;2024-01-06T03:58:08;35.63;;;25.67;;
6955;SDS011;50345;51.136;16.886;2024-01-06T04:00:33;37.17;;;26.70;;
6955;SDS011;50345;51.136;16.886;2024-01-06T04:02:59;40.40;;;27.57;;
6955;SDS011;50345;51.136;16.886;2024-01-06T04:05:25;38.67;;;27.50;;
6955;SDS011;50345;51.136;16.886;2024-01-06T04:07:50;41.57;;;27.10;;
6955;SDS011;50345;51.136;16.886;2024-01-06T04:10:16;39.50;;;27.10;;
6955;SDS011;50345;51.136;16.886;2024-01-06T04:12:41;38.60;;;27.83;;
6955;SDS011;50345;51.136;16.886;2024-01-06T04:15:07;40.73;;;27.00;;
6955;SDS011;50345;51.136;16.886;2024-01-06T04:17:33;37.30;;;27.90;;
6955;SDS011;50345;51.136;16.886;2024-01-06T04:19:58;33.90;;;25.40;;
6955;SDS011;50345;51.136;16.886;2024-01-06T04:22:24;36.17;;;26.43;;
6955;SDS011;50345;51.136;16.886;2024-01-06T04:24:49;41.00;;;27.83;;
6955;SDS011;50345;51.136;16.886;2024-01-06T04:27:15;38.13;;;24.83;;
6955;SDS011;50345;51.136;16.886;2024-01-06T04:29:41;38.40;;;25.57;;
6955;SDS011;50345;51.136;16.886;2024-01-06T04:32:06;36.20;;;25.40;;
6955;SDS011;50345;51.136;16.886;2024-01-06T04:34:32;37.37;;;25.83;;
6955;SDS011;50345;51.136;16.886;2024-01-06T04:36:58;38.40;;;24.90;;
6955;SDS011;50345;51.136;16.886;2024-01-06T04:39:23;39.20;;;26.33;;
6955;SDS011;50345;51.136;16.886;2024-01-06T04:41:49;36.60;;;26.20;;
6955;SDS011;50345;51.136;16.886;2024-01-06T04:44:15;33.40;;;25.90;;
6955;SDS011;50345;51.136;16.886;2024-01-06T04:46:41;40.50;;;28.00;;
6955;SDS011;50345;51.136;16.886;2024-01-06T04:49:06;41.17;;;26.37;;
6955;SDS011;50345;51.136;16.886;2024-01-06T04:51:32;38.30;;;28.33;;
6955;SDS011;50345;51.136;16.886;2024-01-06T04:53:57;35.47;;;25.27;;
6955;SDS011;50345;51.136;16.886;2024-01-06T04:56:23;37.67;;;25.87;;
6955;SDS011;50345;51.136;16.886;2024-01-06T04:58:48;38.63;;;26.90;;
6955;SDS011;50345;51.136;16.886;2024-01-06T05:01:14;36.03;;;25.77;;
6955;SDS011;50345;51.136;16.886;2024-01-06T05:03:39;33.97;;;24.97;;
6955;SDS011;50345;51.136;16.886;2024-01-06T05:06:05;34.63;;;25.80;;
6955;SDS011;50345;51.136;16.886;2024-01-06T05:08:31;38.67;;;24.50;;
6955;SDS011;50345;51.136;16.886;2024-01-06T05:10:56;40.60;;;27.10;;
6955;SDS011;50345;51.136;16.886;2024-01-06T05:13:22;39.73;;;25.47;;
6955;SDS011;50345;51.136;16.886;2024-01-06T05:15:48;34.37;;;25.73;;
6955;SDS011;50345;51.136;16.886;2024-01-06T05:18:13;36.43;;;26.10;;
6955;SDS011;50345;51.136;16.886;2024-01-06T05:20:39;34.77;;;24.40;;
6955;SDS011;50345;51.136;16.886;2024-01-06T05:23:06;40.13;;;26.50;;
6955;SDS011;50345;51.136;16.886;2024-01-06T05:25:32;36.85;;;26.10;;
6955;SDS011;50345;51.136;16.886;2024-01-06T05:27:58;37.67;;;25.80;;
6955;SDS011;50345;51.136;16.886;2024-01-06T05:30:23;35.10;;;25.60;;
6955;SDS011;50345;51.136;16.886;2024-01-06T05:32:49;38.07;;;25.13;;
6955;SDS011;50345;51.136;16.886;2024-01-06T05:35:15;30.93;;;22.77;;
6955;SDS011;50345;51.136;16.886;2024-01-06T05:37:41;35.72;;;26.35;;
6955;SDS011;50345;51.136;16.886;2024-01-06T05:40:07;33.70;;;24.03;;
6955;SDS011;50345;51.136;16.886;2024-01-06T05:42:33;38.55;;;24.90;;
6955;SDS011;50345;51.136;16.886;2024-01-06T05:44:58;39.83;;;25.70;;
6955;SDS011;50345;51.136;16.886;2024-01-06T05:47:24;39.77;;;26.90;;
6955;SDS011;50345;51.136;16.886;2024-01-06T05:49:50;44.03;;;26.47;;
6955;SDS011;50345;51.136;16.886;2024-01-06T05:52:15;40.47;;;27.07;;
6955;SDS011;50345;51.136;16.886;2024-01-06T05:54:41;37.67;;;26.57;;
6955;SDS011;50345;51.136;16.886;2024-01-06T05:57:10;38.08;;;26.85;;
6955;SDS011;50345;51.136;16.886;2024-01-06T05:59:36;33.28;;;23.38;;
6955;SDS011;50345;51.136;16.886;2024-01-06T06:02:02;32.83;;;24.20;;
6955;SDS011;50345;51.136;16.886;2024-01-06T06:04:27;34.63;;;25.70;;
6955;SDS011;50345;51.136;16.886;2024-01-06T06:06:53;38.53;;;25.27;;
6955;SDS011;50345;51.136;16.886;2024-01-06T06:09:18;35.50;;;24.60;;
6955;SDS011;50345;51.136;16.886;2024-01-06T06:11:45;36.33;;;24.92;;
6955;SDS011;50345;51.136;16.886;2024-01-06T06:14:11;39.23;;;25.83;;
6955;SDS011;50345;51.136;16.886;2024-01-06T06:16:37;32.97;;;24.67;;
6955;SDS011;50345;51.136;16.886;2024-01-06T06:19:03;39.33;;;25.70;;
6955;SDS011;50345;51.136;16.886;2024-01-06T06:21:29;33.33;;;25.50;;
6955;SDS011;50345;51.136;16.886;2024-01-06T06:23:54;40.27;;;25.67;;
6955;SDS011;50345;51.136;16.886;2024-01-06T06:26:20;36.60;;;25.50;;
6955;SDS011;50345;51.136;16.886;2024-01-06T06:28:46;43.23;;;25.33;;
6955;SDS011;50345;51.136;16.886;2024-01-06T06:31:11;40.37;;;26.57;;
6955;SDS011;50345;51.136;16.886;2024-01-06T06:33:37;36.87;;;27.17;;
6955;SDS011;50345;51.136;16.886;2024-01-06T06:36:02;39.07;;;26.43;;
6955;SDS011;50345;51.136;16.886;2024-01-06T06:38:28;39.33;;;25.90;;
6955;SDS011;50345;51.136;16.886;2024-01-06T06:40:54;38.40;;;25.00;;
6955;SDS011;50345;51.136;16.886;2024-01-06T06:43:20;40.17;;;27.13;;
6955;SDS011;50345;51.136;16.886;2024-01-06T06:45:46;40.27;;;26.73;;
6955;SDS011;50345;51.136;16.886;2024-01-06T06:48:11;34.70;;;23.70;;
6955;SDS011;50345;51.136;16.886;2024-01-06T06:50:37;39.13;;;25.50;;
6955;SDS011;50345;51.136;16.886;2024-01-06T06:53:03;35.63;;;24.10;;
6955;SDS011;50345;51.136;16.886;2024-01-06T06:55:28;32.43;;;24.47;;
6955;SDS011;50345;51.136;16.886;2024-01-06T06:57:54;38.07;;;25.50;;
6955;SDS011;50345;51.136;16.886;2024-01-06T07:00:19;33.80;;;23.43;;
6955;SDS011;50345;51.136;16.886;2024-01-06T07:02:45;34.17;;;22.45;;
6955;SDS011;50345;51.136;16.886;2024-01-06T07:05:11;36.07;;;24.80;;
6955;SDS011;50345;51.136;16.886;2024-01-06T07:07:37;39.80;;;25.43;;
6955;SDS011;50345;51.136;16.886;2024-01-06T07:10:03;36.70;;;24.43;;
6955;SDS011;50345;51.136;16.886;2024-01-06T07:12:30;38.63;;;26.05;;
6955;SDS011;50345;51.136;16.886;2024-01-06T07:14:56;38.38;;;25.17;;
6955;SDS011;50345;51.136;16.886;2024-01-06T07:17:23;37.17;;;25.00;;
6955;SDS011;50345;51.136;16.886;2024-01-06T07:19:49;39.13;;;26.50;;
6955;SDS011;50345;51.136;16.886;2024-01-06T07:22:15;34.77;;;24.87;;
6955;SDS011;50345;51.136;16.886;2024-01-06T07:24:41;36.95;;;25.27;;
6955;SDS011;50345;51.136;16.886;2024-01-06T07:27:07;31.83;;;23.27;;
6955;SDS011;50345;51.136;16.886;2024-01-06T07:29:32;40.60;;;26.07;;
6955;SDS011;50345;51.136;16.886;2024-01-06T07:31:58;34.40;;;23.70;;
6955;SDS011;50345;51.136;16.886;2024-01-06T07:34:24;36.50;;;25.57;;
6955;SDS011;50345;51.136;16.886;2024-01-06T07:36:50;31.05;;;23.05;;
6955;SDS011;50345;51.136;16.886;2024-01-06T07:39:16;35.23;;;23.37;;
6955;SDS011;50345;51.136;16.886;2024-01-06T07:41:41;38.70;;;25.40;;
6955;SDS011;50345;51.136;16.886;2024-01-06T07:44:07;35.08;;;23.98;;
6955;SDS011;50345;51.136;16.886;2024-01-06T07:46:33;32.53;;;24.70;;
6955;SDS011;50345;51.136;16.886;2024-01-06T07:49:00;29.58;;;23.05;;
6955;SDS011;50345;51.136;16.886;2024-01-06T07:51:25;34.80;;;23.93;;
6955;SDS011;50345;51.136;16.886;2024-01-06T07:53:51;41.87;;;25.30;;
6955;SDS011;50345;51.136;16.886;2024-01-06T07:56:16;32.97;;;22.70;;
6955;SDS011;50345;51.136;16.886;2024-01-06T07:58:43;32.35;;;23.23;;
6955;SDS011;50345;51.136;16.886;2024-01-06T08:01:08;28.87;;;23.00;;
6955;SDS011;50345;51.136;16.886;2024-01-06T08:03:34;31.00;;;22.07;;
6955;SDS011;50345;51.136;16.886;2024-01-06T08:05:59;37.27;;;25.27;;
6955;SDS011;50345;51.136;16.886;2024-01-06T08:08:25;36.00;;;25.23;;
6955;SDS011;50345;51.136;16.886;2024-01-06T08:10:51;33.60;;;23.33;;
6955;SDS011;50345;51.136;16.886;2024-01-06T08:13:17;34.50;;;24.60;;
6955;SDS011;50345;51.136;16.886;2024-01-06T08:15:42;38.20;;;25.30;;
6955;SDS011;50345;51.136;16.886;2024-01-06T08:18:08;31.43;;;22.57;;
6955;SDS011;50345;51.136;16.886;2024-01-06T08:20:33;32.63;;;22.67;;
6955;SDS011;50345;51.136;16.886;2024-01-06T08:22:59;33.90;;;22.30;;
6955;SDS011;50345;51.136;16.886;2024-01-06T08:25:25;34.60;;;23.77;;
6955;SDS011;50345;51.136;16.886;2024-01-06T08:27:50;35.77;;;22.60;;
6955;SDS011;50345;51.136;16.886;2024-01-06T08:30:16;29.67;;;21.40;;
6955;SDS011;50345;51.136;16.886;2024-01-06T08:32:41;30.90;;;22.40;;
6955;SDS011;50345;51.136;16.886;2024-01-06T08:35:07;34.57;;;23.17;;
6955;SDS011;50345;51.136;16.886;2024-01-06T08:37:33;30.85;;;21.33;;
6955;SDS011;50345;51.136;16.886;2024-01-06T08:39:58;32.07;;;21.10;;
6955;SDS011;50345;51.136;16.886;2024-01-06T08:42:24;37.93;;;23.37;;
6955;SDS011;50345;51.136;16.886;2024-01-06T08:44:50;35.67;;;24.20;;
6955;SDS011;50345;51.136;16.886;2024-01-06T08:47:16;34.50;;;21.70;;
6955;SDS011;50345;51.136;16.886;2024-01-06T08:49:42;35.77;;;24.60;;
6955;SDS011;50345;51.136;16.886;2024-01-06T08:52:07;27.77;;;21.10;;
6955;SDS011;50345;51.136;16.886;2024-01-06T08:54:33;29.87;;;21.87;;
6955;SDS011;50345;51.136;16.886;2024-01-06T08:57:00;37.75;;;22.67;;
6955;SDS011;50345;51.136;16.886;2024-01-06T08:59:25;34.93;;;24.27;;
6955;SDS011;50345;51.136;16.886;2024-01-06T09:01:51;32.10;;;23.17;;
6955;SDS011;50345;51.136;16.886;2024-01-06T09:04:17;36.00;;;22.55;;
6955;SDS011;50345;51.136;16.886;2024-01-06T09:06:43;29.65;;;22.05;;
6955;SDS011;50345;51.136;16.886;2024-01-06T09:09:11;26.90;;;20.23;;
6955;SDS011;50345;51.136;16.886;2024-01-06T09:11:37;29.47;;;20.73;;
6955;SDS011;50345;51.136;16.886;2024-01-06T09:14:03;29.67;;;23.10;;
6955;SDS011;50345;51.136;16.886;2024-01-06T09:16:28;32.60;;;22.33;;
6955;SDS011;50345;51.136;16.886;2024-01-06T09:18:54;31.33;;;20.67;;
6955;SDS011;50345;51.136;16.886;2024-01-06T09:21:19;30.83;;;20.67;;
6955;SDS011;50345;51.136;16.886;2024-01-06T09:23:45;25.63;;;20.20;;
6955;SDS011;50345;51.136;16.886;2024-01-06T09:26:11;27.50;;;21.17;;
6955;SDS011;50345;51.136;16.886;2024-01-06T09:28:36;31.00;;;21.60;;
6955;SDS011;50345;51.136;16.886;2024-01-06T09:31:02;26.23;;;22.07;;
6955;SDS011;50345;51.136;16.886;2024-01-06T09:33:29;32.83;;;21.63;;
6955;SDS011;50345;51.136;16.886;2024-01-06T09:35:55;25.40;;;20.47;;
6955;SDS011;50345;51.136;16.886;2024-01-06T09:38:20;27.13;;;21.37;;
6955;SDS011;50345;51.136;16.886;2024-01-06T09:40:46;29.63;;;20.97;;
6955;SDS011;50345;51.136;16.886;2024-01-06T09:43:13;29.98;;;21.27;;
6955;SDS011;50345;51.136;16.886;2024-01-06T09:45:39;34.20;;;22.23;;
6955;SDS011;50345;51.136;16.886;2024-01-06T09:48:10;25.03;;;20.30;;
6955;SDS011;50345;51.136;16.886;2024-01-06T09:50:43;29.35;;;21.60;;
6955;SDS011;50345;51.136;16.886;2024-01-06T09:53:12;30.67;;;22.38;;
6955;SDS011;50345;51.136;16.886;2024-01-06T09:55:39;33.05;;;22.63;;
6955;SDS011;50345;51.136;16.886;2024-01-06T09:58:05;27.73;;;20.60;;
6955;SDS011;50345;51.136;16.886;2024-01-06T10:00:35;29.25;;;22.98;;
6955;SDS011;50345;51.136;16.886;2024-01-06T10:03:00;29.50;;;22.57;;
6955;SDS011;50345;51.136;16.886;2024-01-06T10:05:26;36.20;;;23.03;;
6955;SDS011;50345;51.136;16.886;2024-01-06T10:07:52;34.93;;;26.60;;
6955;SDS011;50345;51.136;16.886;2024-01-06T10:10:17;35.03;;;26.33;;
6955;SDS011;50345;51.136;16.886;2024-01-06T10:12:44;31.60;;;23.70;;
6955;SDS011;50345;51.136;16.886;2024-01-06T10:15:11;34.25;;;22.27;;
6955;SDS011;50345;51.136;16.886;2024-01-06T10:17:37;32.53;;;24.23;;
6955;SDS011;50345;51.136;16.886;2024-01-06T10:20:13;34.60;;;26.55;;
6955;SDS011;50345;51.136;16.886;2024-01-06T10:22:41;35.33;;;27.27;;
6955;SDS011;50345;51.136;16.886;2024-01-06T10:25:08;32.40;;;25.45;;
6955;SDS011;50345;51.136;16.886;2024-01-06T10:27:35;31.23;;;23.80;;
6955;SDS011;50345;51.136;16.886;2024-01-06T10:30:01;34.85;;;23.60;;
6955;SDS011;50345;51.136;16.886;2024-01-06T10:32:26;35.47;;;24.80;;
6955;SDS011;50345;51.136;16.886;2024-01-06T10:34:55;33.17;;;22.55;;
6955;SDS011;50345;51.136;16.886;2024-01-06T10:37:21;35.13;;;24.00;;
6955;SDS011;50345;51.136;16.886;2024-01-06T10:39:46;30.87;;;22.83;;
6955;SDS011;50345;51.136;16.886;2024-01-06T10:42:12;32.50;;;25.30;;
6955;SDS011;50345;51.136;16.886;2024-01-06T10:44:39;33.60;;;22.77;;
6955;SDS011;50345;51.136;16.886;2024-01-06T10:47:07;31.50;;;23.48;;
6955;SDS011;50345;51.136;16.886;2024-01-06T10:49:33;26.40;;;20.70;;
6955;SDS011;50345;51.136;16.886;2024-01-06T10:52:01;32.08;;;24.75;;
6955;SDS011;50345;51.136;16.886;2024-01-06T10:54:26;31.60;;;23.37;;
6955;SDS011;50345;51.136;16.886;2024-01-06T10:56:53;32.78;;;23.80;;
6955;SDS011;50345;51.136;16.886;2024-01-06T10:59:19;30.35;;;22.98;;
6955;SDS011;50345;51.136;16.886;2024-01-06T11:01:49;29.67;;;23.60;;
6955;SDS011;50345;51.136;16.886;2024-01-06T11:04:17;29.63;;;21.33;;
6955;SDS011;50345;51.136;16.886;2024-01-06T11:06:44;30.83;;;21.90;;
6955;SDS011;50345;51.136;16.886;2024-01-06T11:09:14;32.43;;;23.60;;
6955;SDS011;50345;51.136;16.886;2024-01-06T11:11:46;31.15;;;23.27;;
6955;SDS011;50345;51.136;16.886;2024-01-06T11:16:52;32.58;;;24.45;;
6955;SDS011;50345;51.136;16.886;2024-01-06T11:24:48;34.28;;;24.95;;
6955;SDS011;50345;51.136;16.886;2024-01-06T11:27:18;33.10;;;23.00;;
6955;SDS011;50345;51.136;16.886;2024-01-06T11:29:45;28.75;;;24.80;;
6955;SDS011;50345;51.136;16.886;2024-01-06T11:32:17;34.78;;;26.35;;
6955;SDS011;50345;51.136;16.886;2024-01-06T11:34:50;31.83;;;25.08;;
6955;SDS011;50345;51.136;16.886;2024-01-06T11:37:18;30.48;;;25.40;;
6955;SDS011;50345;51.136;16.886;2024-01-06T11:39:48;29.48;;;24.23;;
6955;SDS011;50345;51.136;16.886;2024-01-06T11:42:15;35.83;;;27.90;;
6955;SDS011;50345;51.136;16.886;2024-01-06T11:44:44;37.20;;;26.83;;
6955;SDS011;50345;51.136;16.886;2024-01-06T11:47:14;38.35;;;28.73;;
6955;SDS011;50345;51.136;16.886;2024-01-06T11:49:43;38.72;;;28.52;;
6955;SDS011;50345;51.136;16.886;2024-01-06T11:52:11;60.95;;;36.00;;
6955;SDS011;50345;51.136;16.886;2024-01-06T11:54:37;44.30;;;30.63;;
6955;SDS011;50345;51.136;16.886;2024-01-06T11:57:03;43.00;;;29.27;;
6955;SDS011;50345;51.136;16.886;2024-01-06T11:59:29;46.37;;;33.83;;
6955;SDS011;50345;51.136;16.886;2024-01-06T12:01:55;52.17;;;32.38;;
6955;SDS011;50345;51.136;16.886;2024-01-06T12:04:20;51.00;;;33.90;;
6955;SDS011;50345;51.136;16.886;2024-01-06T12:06:47;67.40;;;39.47;;
6955;SDS011;50345;51.136;16.886;2024-01-06T12:09:13;62.23;;;39.03;;
6955;SDS011;50345;51.136;16.886;2024-01-06T12:11:39;59.75;;;37.60;;
6955;SDS011;50345;51.136;16.886;2024-01-06T12:14:05;61.30;;;40.00;;
6955;SDS011;50345;51.136;16.886;2024-01-06T12:16:31;59.83;;;36.13;;
6955;SDS011;50345;51.136;16.886;2024-01-06T12:18:58;64.30;;;39.20;;
6955;SDS011;50345;51.136;16.886;2024-01-06T12:21:25;50.70;;;34.55;;
6955;SDS011;50345;51.136;16.886;2024-01-06T12:23:51;59.87;;;36.97;;
6955;SDS011;50345;51.136;16.886;2024-01-06T12:26:17;49.73;;;34.80;;
6955;SDS011;50345;51.136;16.886;2024-01-06T12:28:46;57.38;;;36.53;;
6955;SDS011;50345;51.136;16.886;2024-01-06T12:31:13;49.42;;;34.30;;
6955;SDS011;50345;51.136;16.886;2024-01-06T12:33:39;42.45;;;33.53;;
6955;SDS011;50345;51.136;16.886;2024-01-06T12:36:08;54.37;;;38.47;;
6955;SDS011;50345;51.136;16.886;2024-01-06T12:38:36;47.90;;;33.80;;
6955;SDS011;50345;51.136;16.886;2024-01-06T12:41:02;47.15;;;34.55;;
6955;SDS011;50345;51.136;16.886;2024-01-06T12:43:29;47.25;;;33.38;;
6955;SDS011;50345;51.136;16.886;2024-01-06T12:45:54;54.80;;;34.90;;
6955;SDS011;50345;51.136;16.886;2024-01-06T12:48:22;52.55;;;32.83;;
6955;SDS011;50345;51.136;16.886;2024-01-06T12:50:47;50.67;;;34.07;;
6955;SDS011;50345;51.136;16.886;2024-01-06T12:53:13;51.43;;;35.43;;
6955;SDS011;50345;51.136;16.886;2024-01-06T12:55:40;47.63;;;33.83;;
6955;SDS011;50345;51.136;16.886;2024-01-06T12:58:06;43.97;;;31.83;;
6955;SDS011;50345;51.136;16.886;2024-01-06T13:00:33;42.28;;;30.48;;
6955;SDS011;50345;51.136;16.886;2024-01-06T13:02:58;54.27;;;35.03;;
6955;SDS011;50345;51.136;16.886;2024-01-06T13:05:24;45.30;;;32.43;;
6955;SDS011;50345;51.136;16.886;2024-01-06T13:07:50;44.43;;;31.17;;
6955;SDS011;50345;51.136;16.886;2024-01-06T13:10:15;47.97;;;34.57;;
6955;SDS011;50345;51.136;16.886;2024-01-06T13:12:41;44.50;;;31.63;;
6955;SDS011;50345;51.136;16.886;2024-01-06T13:15:07;47.93;;;35.30;;
6955;SDS011;50345;51.136;16.886;2024-01-06T13:17:36;47.40;;;32.28;;
6955;SDS011;50345;51.136;16.886;2024-01-06T13:20:02;47.85;;;34.22;;
6955;SDS011;50345;51.136;16.886;2024-01-06T13:22:29;46.47;;;32.20;;
6955;SDS011;50345;51.136;16.886;2024-01-06T13:24:55;53.28;;;35.47;;
6955;SDS011;50345;51.136;16.886;2024-01-06T13:27:21;49.87;;;32.97;;
6955;SDS011;50345;51.136;16.886;2024-01-06T13:29:46;40.00;;;30.00;;
6955;SDS011;50345;51.136;16.886;2024-01-06T13:32:12;46.33;;;31.77;;
6955;SDS011;50345;51.136;16.886;2024-01-06T13:34:38;39.97;;;30.42;;
6955;SDS011;50345;51.136;16.886;2024-01-06T13:37:04;48.30;;;30.63;;
6955;SDS011;50345;51.136;16.886;2024-01-06T13:39:31;54.63;;;35.00;;
6955;SDS011;50345;51.136;16.886;2024-01-06T13:41:57;43.73;;;31.00;;
6955;SDS011;50345;51.136;16.886;2024-01-06T13:44:23;43.10;;;31.93;;
6955;SDS011;50345;51.136;16.886;2024-01-06T13:46:48;48.00;;;33.10;;
6955;SDS011;50345;51.136;16.886;2024-01-06T13:49:16;50.88;;;34.55;;
6955;SDS011;50345;51.136;16.886;2024-01-06T13:51:42;46.80;;;31.17;;
6955;SDS011;50345;51.136;16.886;2024-01-06T13:54:08;55.92;;;36.00;;
6955;SDS011;50345;51.136;16.886;2024-01-06T13:56:35;55.90;;;37.25;;
6955;SDS011;50345;51.136;16.886;2024-01-06T13:59:02;55.30;;;37.35;;
6955;SDS011;50345;51.136;16.886;2024-01-06T14:01:27;57.80;;;35.93;;
6955;SDS011;50345;51.136;16.886;2024-01-06T14:03:53;54.58;;;35.88;;
6955;SDS011;50345;51.136;16.886;2024-01-06T14:06:25;50.38;;;34.60;;
6955;SDS011;50345;51.136;16.886;2024-01-06T14:08:55;52.40;;;33.60;;
6955;SDS011;50345;51.136;16.886;2024-01-06T14:11:21;51.88;;;35.28;;
6955;SDS011;50345;51.136;16.886;2024-01-06T14:13:46;48.63;;;31.70;;
6955;SDS011;50345;51.136;16.886;2024-01-06T14:16:14;53.25;;;35.17;;
6955;SDS011;50345;51.136;16.886;2024-01-06T14:18:40;53.40;;;33.78;;
6955;SDS011;50345;51.136;16.886;2024-01-06T14:21:07;62.03;;;39.25;;
6955;SDS011;50345;51.136;16.886;2024-01-06T14:23:35;44.58;;;33.40;;